Terminal Aerodrome Forecast
Issued by NWS

Home | Current Version | Previous Version | Graphics & Text | Print | Product List | Glossary On
Versions: 1 2 3 4 5 6 7 8 9 10 11 12 13 14 15 16 17 18 19 20 21 22 23 24 25 26 27 28 29 30 31 32 33
000
FTUS43 KLOT 160300 AAA
TAFDPA
TAF AMD
KDPA 160300Z 1603/1624 08010KT P6SM FEW070 BKN120
     FM160500 08009KT P6SM BKN045 BKN070
     FM160800 08009KT P6SM VCSH BKN025
      TEMPO 1609/1613 5SM -SHRA BR OVC008
     FM161300 08006KT 5SM BR OVC010
     FM161600 05006KT P6SM BKN015
     FM162000 35005KT P6SM SCT025 BKN045=

USA.gov is the U.S. government's official web portal to all federal, state and local government web resources and services.